Time;durP1;ratioP1;P1;durP2;ratioP2;P2;SDS_P1;SDS_P2;PMS_P1;PMS_P2;Temp;Humidity;BMP_temperature;BMP_pressure;BME280_temperature;BME280_humidity;BME280_pressure;Samples;Min_cycle;Max_cycle;Signal;HPM_P1;HPM_P2
2023/05/22 00:01:44;;;;;;;5.10;3.00;;;;;;;-128.00;-1.00;-1.00;18871;296;7504955;-30
2023/05/22 00:04:12;;;;;;;11.40;4.00;;;;;;;-128.00;-1.00;-1.00;18465;298;7504999;-31
2023/05/22 00:06:41;;;;;;;3.40;2.70;;;;;;;-128.00;-1.00;-1.00;18468;296;7504642;-36
2023/05/22 00:09:06;;;;;;;4.50;3.00;;;;;;;-128.00;-1.00;-1.00;18467;296;7505090;-35
2023/05/22 00:11:34;;;;;;;13.00;6.60;;;;;;;-128.00;-1.00;-1.00;18887;296;7504434;-36
2023/05/22 00:14:01;;;;;;;4.20;2.80;;;;;;;-128.00;-1.00;-1.00;18435;288;7504368;-33
2023/05/22 00:16:26;;;;;;;71.50;34.30;;;;;;;-128.00;-1.00;-1.00;18463;348;7505807;-35
2023/05/22 00:18:52;;;;;;;29.30;21.50;;;;;;;-128.00;-1.00;-1.00;18477;298;7505915;-32
2023/05/22 00:21:18;;;;;;;12.70;8.40;;;;;;;-128.00;-1.00;-1.00;18900;296;7504562;-37
2023/05/22 00:23:44;;;;;;;10.70;6.50;;;;;;;-128.00;-1.00;-1.00;18485;304;7505594;-31
2023/05/22 00:26:13;;;;;;;7.00;4.30;;;;;;;-128.00;-1.00;-1.00;18457;296;7506695;-32
2023/05/22 00:28:39;;;;;;;5.60;4.00;;;;;;;-128.00;-1.00;-1.00;18494;296;7504901;-31
2023/05/22 00:31:05;;;;;;;3.90;2.70;;;;;;;-128.00;-1.00;-1.00;18469;298;7504347;-34
2023/05/22 00:33:32;;;;;;;13.70;4.00;;;;;;;-128.00;-1.00;-1.00;18882;296;7504342;-34
2023/05/22 00:35:59;;;;;;;4.40;3.30;;;;;;;-128.00;-1.00;-1.00;18477;296;7504672;-31
2023/05/22 00:38:29;;;;;;;14.80;7.80;;;;;;;-128.00;-1.00;-1.00;18444;288;7504451;-31
2023/05/22 00:40:56;;;;;;;11.00;4.10;;;;;;;-128.00;-1.00;-1.00;18454;288;7504211;-31
2023/05/22 00:43:22;;;;;;;7.10;3.70;;;;;;;-128.00;-1.00;-1.00;18928;296;7504634;-34
2023/05/22 00:45:48;;;;;;;13.50;4.20;;;;;;;-128.00;-1.00;-1.00;18876;296;7505118;-31
2023/05/22 00:48:14;;;;;;;3.70;2.80;;;;;;;-128.00;-1.00;-1.00;18478;297;7505763;-32
2023/05/22 00:50:41;;;;;;;3.70;2.40;;;;;;;-128.00;-1.00;-1.00;18449;296;7504436;-32
2023/05/22 00:53:07;;;;;;;3.00;2.50;;;;;;;-128.00;-1.00;-1.00;18462;311;7504322;-36
2023/05/22 00:55:33;;;;;;;3.50;2.60;;;;;;;-128.00;-1.00;-1.00;18468;336;7506414;-33
2023/05/22 00:57:59;;;;;;;4.80;2.00;;;;;;;-128.00;-1.00;-1.00;18875;289;7504370;-36
2023/05/22 01:00:25;;;;;;;2.20;1.70;;;;;;;-128.00;-1.00;-1.00;18464;289;7504516;-36
2023/05/22 01:02:51;;;;;;;4.70;3.50;;;;;;;-128.00;-1.00;-1.00;18885;289;7504534;-31
2023/05/22 01:05:17;;;;;;;6.80;3.20;;;;;;;-128.00;-1.00;-1.00;18856;296;7504988;-31
2023/05/22 01:07:45;;;;;;;5.00;4.20;;;;;;;-128.00;-1.00;-1.00;18872;296;7505143;-35
2023/05/22 01:10:10;;;;;;;4.80;4.30;;;;;;;-128.00;-1.00;-1.00;18489;285;7505057;-35
2023/05/22 01:12:55;;;;;;;6.20;4.20;;;;;;;-128.00;-1.00;-1.00;18469;289;7504228;-34
2023/05/22 01:15:39;;;;;;;5.90;4.50;;;;;;;-128.00;-1.00;-1.00;18479;289;7504356;-34
2023/05/22 01:18:25;;;;;;;5.50;4.00;;;;;;;-128.00;-1.00;-1.00;18452;289;7505076;-31
2023/05/22 01:21:05;;;;;;;3.50;2.20;;;;;;;-128.00;-1.00;-1.00;18456;298;7505145;-35
2023/05/22 01:23:56;;;;;;;2.80;2.10;;;;;;;-128.00;-1.00;-1.00;18481;289;7504563;-31
2023/05/22 01:26:43;;;;;;;3.20;1.60;;;;;;;-128.00;-1.00;-1.00;18469;285;7504343;-32
2023/05/22 01:29:32;;;;;;;2.60;2.00;;;;;;;-128.00;-1.00;-1.00;18488;304;7504198;-30
2023/05/22 01:31:58;;;;;;;2.90;2.20;;;;;;;-128.00;-1.00;-1.00;18477;285;7504479;-32
2023/05/22 01:34:23;;;;;;;7.10;3.40;;;;;;;-128.00;-1.00;-1.00;18469;289;7504761;-36
2023/05/22 01:36:49;;;;;;;11.20;3.40;;;;;;;-128.00;-1.00;-1.00;18471;285;7504377;-31
2023/05/22 01:39:17;;;;;;;8.40;4.00;;;;;;;-128.00;-1.00;-1.00;18902;348;7504205;-31
2023/05/22 01:41:42;;;;;;;3.80;3.50;;;;;;;-128.00;-1.00;-1.00;18458;285;7506095;-31
2023/05/22 01:44:08;;;;;;;4.70;3.80;;;;;;;-128.00;-1.00;-1.00;18451;301;7506179;-35
2023/05/22 01:46:35;;;;;;;10.50;6.80;;;;;;;-128.00;-1.00;-1.00;18874;344;7505084;-32
2023/05/22 01:49:00;;;;;;;5.30;4.80;;;;;;;-128.00;-1.00;-1.00;18435;298;7504436;-31
2023/05/22 01:51:44;;;;;;;5.40;4.80;;;;;;;-128.00;-1.00;-1.00;18473;297;7505475;-31
2023/05/22 01:54:24;;;;;;;8.70;5.10;;;;;;;-128.00;-1.00;-1.00;18465;285;7504695;-31
2023/05/22 01:56:56;;;;;;;13.40;6.40;;;;;;;-128.00;-1.00;-1.00;18438;285;7505233;-31
2023/05/22 01:59:32;;;;;;;4.90;4.40;;;;;;;-128.00;-1.00;-1.00;18432;296;7504723;-32
2023/05/22 02:02:02;;;;;;;7.30;5.50;;;;;;;-128.00;-1.00;-1.00;18458;285;7504927;-31
2023/05/22 02:04:28;;;;;;;13.90;6.80;;;;;;;-128.00;-1.00;-1.00;18477;296;7505968;-36
2023/05/22 02:06:54;;;;;;;7.90;7.00;;;;;;;-128.00;-1.00;-1.00;18492;289;7505812;-35
2023/05/22 02:09:20;;;;;;;9.20;6.30;;;;;;;-128.00;-1.00;-1.00;18474;285;7504342;-36
2023/05/22 02:11:46;;;;;;;6.50;6.00;;;;;;;-128.00;-1.00;-1.00;18464;296;7506033;-34
2023/05/22 02:14:11;;;;;;;4.80;4.10;;;;;;;-128.00;-1.00;-1.00;18430;298;7505204;-31
2023/05/22 02:16:37;;;;;;;6.30;5.70;;;;;;;-128.00;-1.00;-1.00;18508;285;7505043;-37
2023/05/22 02:19:04;;;;;;;7.60;5.40;;;;;;;-128.00;-1.00;-1.00;18485;296;7504396;-32
2023/05/22 02:21:33;;;;;;;6.80;4.90;;;;;;;-128.00;-1.00;-1.00;18455;296;7506334;-35
2023/05/22 02:23:59;;;;;;;6.20;4.50;;;;;;;-128.00;-1.00;-1.00;18477;296;7505561;-30
2023/05/22 02:26:25;;;;;;;5.80;4.50;;;;;;;-128.00;-1.00;-1.00;18439;300;7504777;-34
2023/05/22 02:28:51;;;;;;;8.20;3.80;;;;;;;-128.00;-1.00;-1.00;18482;296;7504859;-31
2023/05/22 02:31:17;;;;;;;5.70;5.00;;;;;;;-128.00;-1.00;-1.00;18903;289;7504737;-31
2023/05/22 02:33:43;;;;;;;6.10;4.20;;;;;;;-128.00;-1.00;-1.00;18871;348;7504142;-36
2023/05/22 02:36:11;;;;;;;4.90;3.60;;;;;;;-128.00;-1.00;-1.00;18889;296;7504477;-35
2023/05/22 02:38:38;;;;;;;5.00;3.20;;;;;;;-128.00;-1.00;-1.00;18471;296;7504339;-35
2023/05/22 02:41:03;;;;;;;15.70;4.80;;;;;;;-128.00;-1.00;-1.00;18472;342;7506006;-35
2023/05/22 02:43:29;;;;;;;4.70;4.30;;;;;;;-128.00;-1.00;-1.00;18483;312;7505570;-33
2023/05/22 02:45:55;;;;;;;4.30;3.70;;;;;;;-128.00;-1.00;-1.00;18481;285;7504713;-31
2023/05/22 02:48:21;;;;;;;4.00;3.00;;;;;;;-128.00;-1.00;-1.00;18464;285;7504478;-37
2023/05/22 02:50:50;;;;;;;7.60;3.60;;;;;;;-128.00;-1.00;-1.00;18493;312;7506265;-31
2023/05/22 02:53:16;;;;;;;5.60;4.10;;;;;;;-128.00;-1.00;-1.00;18453;298;7505111;-35
2023/05/22 02:55:42;;;;;;;4.40;3.90;;;;;;;-128.00;-1.00;-1.00;18849;296;7504559;-33
2023/05/22 02:58:10;;;;;;;6.70;4.80;;;;;;;-128.00;-1.00;-1.00;18857;298;7505047;-31
2023/05/22 03:00:36;;;;;;;9.70;3.40;;;;;;;-128.00;-1.00;-1.00;18473;289;7505240;-35
2023/05/22 03:03:03;;;;;;;7.70;4.60;;;;;;;-128.00;-1.00;-1.00;18470;296;7505989;-31
2023/05/22 03:05:28;;;;;;;7.50;3.90;;;;;;;-128.00;-1.00;-1.00;18500;285;7505107;-31
2023/05/22 03:07:55;;;;;;;9.90;3.80;;;;;;;-128.00;-1.00;-1.00;18462;296;7504387;-32
2023/05/22 03:10:21;;;;;;;7.50;4.20;;;;;;;-128.00;-1.00;-1.00;18856;336;7504958;-35
2023/05/22 03:12:47;;;;;;;5.20;3.80;;;;;;;-128.00;-1.00;-1.00;18461;287;7505850;-34
2023/05/22 03:15:13;;;;;;;4.50;3.70;;;;;;;-128.00;-1.00;-1.00;18842;299;7504958;-37
2023/05/22 03:17:39;;;;;;;6.80;4.20;;;;;;;-128.00;-1.00;-1.00;18902;285;7504904;-30
2023/05/22 03:20:07;;;;;;;6.00;4.60;;;;;;;-128.00;-1.00;-1.00;18871;285;7504659;-35
2023/05/22 03:22:33;;;;;;;3.40;3.10;;;;;;;-128.00;-1.00;-1.00;18468;289;7506165;-31
2023/05/22 03:24:58;;;;;;;6.10;3.20;;;;;;;-128.00;-1.00;-1.00;18462;285;7504515;-31
2023/05/22 03:27:24;;;;;;;6.30;4.10;;;;;;;-128.00;-1.00;-1.00;18907;340;7504855;-35
2023/05/22 03:29:51;;;;;;;8.00;4.10;;;;;;;-128.00;-1.00;-1.00;18885;289;7504217;-35
2023/05/22 03:32:17;;;;;;;4.90;3.70;;;;;;;-128.00;-1.00;-1.00;18445;289;7506553;-31
2023/05/22 03:34:42;;;;;;;6.60;4.30;;;;;;;-128.00;-1.00;-1.00;18487;285;7504367;-31
2023/05/22 03:37:08;;;;;;;11.90;4.90;;;;;;;-128.00;-1.00;-1.00;18858;285;7505968;-35
2023/05/22 03:39:35;;;;;;;5.10;3.90;;;;;;;-128.00;-1.00;-1.00;18873;297;7504443;-35
2023/05/22 03:42:01;;;;;;;4.30;3.60;;;;;;;-128.00;-1.00;-1.00;18897;289;7505629;-35
2023/05/22 03:44:28;;;;;;;3.80;3.10;;;;;;;-128.00;-1.00;-1.00;18891;298;7506708;-33
2023/05/22 03:46:54;;;;;;;6.80;5.30;;;;;;;-128.00;-1.00;-1.00;18875;296;7504312;-31
2023/05/22 03:49:20;;;;;;;7.80;6.00;;;;;;;-128.00;-1.00;-1.00;18857;298;7504816;-32
2023/05/22 03:51:46;;;;;;;9.20;4.80;;;;;;;-128.00;-1.00;-1.00;18894;348;7504457;-34
2023/05/22 03:54:12;;;;;;;11.20;4.00;;;;;;;-128.00;-1.00;-1.00;18882;320;7504657;-31
2023/05/22 03:56:38;;;;;;;4.90;3.60;;;;;;;-128.00;-1.00;-1.00;18890;285;7505192;-31
2023/05/22 03:59:05;;;;;;;15.30;4.80;;;;;;;-128.00;-1.00;-1.00;18864;320;7504807;-31
2023/05/22 04:01:31;;;;;;;8.70;4.50;;;;;;;-128.00;-1.00;-1.00;18881;285;7505559;-35
2023/05/22 04:03:57;;;;;;;6.40;5.00;;;;;;;-128.00;-1.00;-1.00;18878;296;7505072;-31
2023/05/22 04:06:24;;;;;;;8.70;3.80;;;;;;;-128.00;-1.00;-1.00;18875;296;7505071;-36
2023/05/22 04:08:52;;;;;;;5.60;4.30;;;;;;;-128.00;-1.00;-1.00;18471;296;7504467;-32
2023/05/22 04:11:19;;;;;;;6.50;4.20;;;;;;;-128.00;-1.00;-1.00;18872;289;7504885;-32
2023/05/22 04:13:48;;;;;;;5.20;3.80;;;;;;;-128.00;-1.00;-1.00;18493;297;7506717;-35
2023/05/22 04:16:16;;;;;;;15.10;4.00;;;;;;;-128.00;-1.00;-1.00;18467;296;7505050;-37
2023/05/22 04:18:42;;;;;;;4.90;3.80;;;;;;;-128.00;-1.00;-1.00;18475;289;7504187;-35
2023/05/22 04:21:08;;;;;;;3.60;3.20;;;;;;;-128.00;-1.00;-1.00;18471;289;7505836;-32
2023/05/22 04:23:34;;;;;;;4.90;3.80;;;;;;;-128.00;-1.00;-1.00;18444;296;7506474;-34
2023/05/22 04:26:01;;;;;;;6.00;3.40;;;;;;;-128.00;-1.00;-1.00;18498;285;7505938;-35
2023/05/22 04:28:29;;;;;;;4.40;3.10;;;;;;;-128.00;-1.00;-1.00;18469;296;7506406;-32
2023/05/22 04:30:58;;;;;;;7.20;4.60;;;;;;;-128.00;-1.00;-1.00;18464;316;7504654;-36
2023/05/22 04:33:23;;;;;;;8.00;3.90;;;;;;;-128.00;-1.00;-1.00;18477;289;7504743;-31
2023/05/22 04:35:50;;;;;;;6.00;4.00;;;;;;;-128.00;-1.00;-1.00;18873;296;7504810;-36
2023/05/22 04:38:17;;;;;;;4.80;3.10;;;;;;;-128.00;-1.00;-1.00;18466;296;7506000;-36
2023/05/22 04:40:43;;;;;;;5.10;2.80;;;;;;;-128.00;-1.00;-1.00;18496;296;7504746;-30
2023/05/22 04:43:11;;;;;;;4.00;3.10;;;;;;;-128.00;-1.00;-1.00;18476;345;7504829;-31
2023/05/22 04:45:38;;;;;;;4.30;2.70;;;;;;;-128.00;-1.00;-1.00;18487;296;7504558;-35
2023/05/22 04:48:04;;;;;;;4.20;2.90;;;;;;;-128.00;-1.00;-1.00;18465;349;7504847;-31
2023/05/22 04:50:31;;;;;;;5.60;3.80;;;;;;;-128.00;-1.00;-1.00;18431;296;7504225;-36
2023/05/22 04:52:58;;;;;;;2.40;2.10;;;;;;;-128.00;-1.00;-1.00;18428;297;7506007;-35
2023/05/22 04:55:24;;;;;;;4.10;3.20;;;;;;;-128.00;-1.00;-1.00;18479;285;7505171;-32
2023/05/22 04:57:51;;;;;;;4.10;2.90;;;;;;;-128.00;-1.00;-1.00;18446;342;7505039;-32
2023/05/22 05:00:17;;;;;;;4.40;2.50;;;;;;;-128.00;-1.00;-1.00;18479;296;7505029;-33
2023/05/22 05:02:43;;;;;;;4.00;3.00;;;;;;;-128.00;-1.00;-1.00;18463;308;7504534;-37
2023/05/22 05:05:09;;;;;;;1.80;1.60;;;;;;;-128.00;-1.00;-1.00;18478;296;7506065;-33
2023/05/22 05:07:38;;;;;;;3.90;2.70;;;;;;;-128.00;-1.00;-1.00;18445;298;7504991;-35
2023/05/22 05:10:05;;;;;;;2.80;2.20;;;;;;;-128.00;-1.00;-1.00;18474;296;7506286;-32
2023/05/22 05:12:31;;;;;;;6.60;2.70;;;;;;;-128.00;-1.00;-1.00;18481;296;7505986;-32
2023/05/22 05:14:57;;;;;;;3.70;2.70;;;;;;;-128.00;-1.00;-1.00;18484;289;7504378;-32
2023/05/22 05:17:22;;;;;;;5.20;2.60;;;;;;;-128.00;-1.00;-1.00;18456;285;7504690;-33
2023/05/22 05:19:49;;;;;;;3.70;2.80;;;;;;;-128.00;-1.00;-1.00;18488;285;7504609;-36
2023/05/22 05:22:15;;;;;;;7.10;3.40;;;;;;;-128.00;-1.00;-1.00;18877;298;7504723;-34
2023/05/22 05:24:41;;;;;;;5.70;3.10;;;;;;;-128.00;-1.00;-1.00;18869;296;7504356;-33
2023/05/22 05:27:08;;;;;;;6.70;3.50;;;;;;;-128.00;-1.00;-1.00;18881;289;7505214;-37
2023/05/22 05:29:34;;;;;;;4.50;2.90;;;;;;;-128.00;-1.00;-1.00;18879;296;7505285;-37
2023/05/22 05:32:00;;;;;;;5.90;3.30;;;;;;;-128.00;-1.00;-1.00;18882;289;7505936;-37
2023/05/22 05:34:26;;;;;;;4.50;3.10;;;;;;;-128.00;-1.00;-1.00;18875;289;7504530;-36
2023/05/22 05:36:52;;;;;;;5.60;3.50;;;;;;;-128.00;-1.00;-1.00;18904;285;7505172;-33
2023/05/22 05:39:19;;;;;;;9.90;2.60;;;;;;;-128.00;-1.00;-1.00;18873;348;7504374;-37
2023/05/22 05:41:45;;;;;;;3.70;2.10;;;;;;;-128.00;-1.00;-1.00;18886;285;7504718;-33
2023/05/22 05:44:11;;;;;;;3.60;2.90;;;;;;;-128.00;-1.00;-1.00;18893;285;7505096;-39
2023/05/22 05:46:37;;;;;;;11.50;3.90;;;;;;;-128.00;-1.00;-1.00;18864;296;7504623;-36
2023/05/22 05:49:08;;;;;;;2.60;2.20;;;;;;;-128.00;-1.00;-1.00;18469;342;7504555;-36
2023/05/22 05:51:35;;;;;;;2.40;1.40;;;;;;;-128.00;-1.00;-1.00;18471;296;7505339;-35
2023/05/22 05:54:01;;;;;;;4.50;3.30;;;;;;;-128.00;-1.00;-1.00;18460;297;7506264;-35
2023/05/22 05:56:26;;;;;;;5.30;2.90;;;;;;;-128.00;-1.00;-1.00;18464;285;7504670;-36
2023/05/22 05:58:52;;;;;;;3.50;2.30;;;;;;;-128.00;-1.00;-1.00;18862;296;7504413;-37
2023/05/22 06:01:19;;;;;;;3.50;2.50;;;;;;;-128.00;-1.00;-1.00;18862;296;7504430;-33
2023/05/22 06:03:45;;;;;;;3.50;3.20;;;;;;;-128.00;-1.00;-1.00;18892;289;7505105;-33
2023/05/22 06:06:12;;;;;;;2.80;2.00;;;;;;;-128.00;-1.00;-1.00;18889;296;7505140;-33
2023/05/22 06:08:38;;;;;;;4.10;2.50;;;;;;;-128.00;-1.00;-1.00;18478;285;7506043;-32
2023/05/22 06:11:04;;;;;;;9.50;2.40;;;;;;;-128.00;-1.00;-1.00;18457;285;7507112;-33
2023/05/22 06:13:30;;;;;;;4.70;2.60;;;;;;;-128.00;-1.00;-1.00;18859;289;7504230;-33
2023/05/22 06:15:57;;;;;;;3.80;2.60;;;;;;;-128.00;-1.00;-1.00;18895;312;7504323;-32
2023/05/22 06:18:24;;;;;;;3.30;2.40;;;;;;;-128.00;-1.00;-1.00;18873;296;7505367;-32
2023/05/22 06:20:51;;;;;;;2.70;1.90;;;;;;;-128.00;-1.00;-1.00;18491;285;7504637;-35
2023/05/22 06:23:16;;;;;;;4.40;2.70;;;;;;;-128.00;-1.00;-1.00;18477;296;7504967;-35
2023/05/22 06:25:42;;;;;;;3.00;2.30;;;;;;;-128.00;-1.00;-1.00;18854;297;7504844;-37
2023/05/22 06:28:09;;;;;;;3.40;2.30;;;;;;;-128.00;-1.00;-1.00;18844;288;7506327;-32
2023/05/22 06:30:35;;;;;;;6.80;1.90;;;;;;;-128.00;-1.00;-1.00;18852;299;7504385;-38
2023/05/22 06:33:02;;;;;;;2.40;1.50;;;;;;;-128.00;-1.00;-1.00;18903;296;7504880;-33
2023/05/22 06:35:29;;;;;;;2.50;2.00;;;;;;;-128.00;-1.00;-1.00;18509;289;7505927;-36
2023/05/22 06:37:54;;;;;;;6.10;2.00;;;;;;;-128.00;-1.00;-1.00;18486;285;7504356;-32
2023/05/22 06:40:21;;;;;;;3.10;2.10;;;;;;;-128.00;-1.00;-1.00;18475;296;7506877;-36
2023/05/22 06:42:46;;;;;;;4.70;1.90;;;;;;;-128.00;-1.00;-1.00;18465;296;7506279;-36
2023/05/22 06:45:12;;;;;;;4.60;2.00;;;;;;;-128.00;-1.00;-1.00;18474;285;7504790;-33
2023/05/22 06:47:38;;;;;;;3.20;2.10;;;;;;;-128.00;-1.00;-1.00;18474;304;7505051;-35
2023/05/22 06:50:05;;;;;;;8.40;2.40;;;;;;;-128.00;-1.00;-1.00;18879;296;7505141;-36
2023/05/22 06:52:32;;;;;;;3.50;1.40;;;;;;;-128.00;-1.00;-1.00;18478;348;7504767;-36
2023/05/22 06:55:03;;;;;;;8.10;1.80;;;;;;;-128.00;-1.00;-1.00;18461;289;7505789;-36
2023/05/22 06:57:30;;;;;;;2.30;1.50;;;;;;;-128.00;-1.00;-1.00;18469;296;7505278;-32
2023/05/22 06:59:56;;;;;;;6.10;2.50;;;;;;;-128.00;-1.00;-1.00;18504;296;7504436;-36
2023/05/22 07:02:22;;;;;;;5.30;2.40;;;;;;;-128.00;-1.00;-1.00;18445;296;7504610;-35
2023/05/22 07:04:48;;;;;;;7.10;1.90;;;;;;;-128.00;-1.00;-1.00;18870;296;7504660;-32
2023/05/22 07:07:14;;;;;;;2.40;1.70;;;;;;;-128.00;-1.00;-1.00;18862;349;7504630;-36
2023/05/22 07:09:40;;;;;;;3.50;2.20;;;;;;;-128.00;-1.00;-1.00;18902;296;7506511;-36
2023/05/22 07:12:07;;;;;;;4.10;2.60;;;;;;;-128.00;-1.00;-1.00;18848;289;7504330;-35
2023/05/22 07:14:33;;;;;;;3.00;1.20;;;;;;;-128.00;-1.00;-1.00;18451;296;7505790;-34
2023/05/22 07:16:59;;;;;;;2.50;2.00;;;;;;;-128.00;-1.00;-1.00;18461;338;7506159;-31
2023/05/22 07:19:25;;;;;;;1.90;1.60;;;;;;;-128.00;-1.00;-1.00;18465;296;7504145;-31
2023/05/22 07:21:51;;;;;;;4.00;1.90;;;;;;;-128.00;-1.00;-1.00;18885;285;7504922;-35
2023/05/22 07:24:17;;;;;;;3.90;1.60;;;;;;;-128.00;-1.00;-1.00;18871;289;7504393;-35
2023/05/22 07:26:46;;;;;;;3.00;2.20;;;;;;;-128.00;-1.00;-1.00;18883;296;7504684;-31
2023/05/22 07:29:15;;;;;;;3.60;1.80;;;;;;;-128.00;-1.00;-1.00;18481;285;7504359;-31
2023/05/22 07:31:41;;;;;;;1.90;1.30;;;;;;;-128.00;-1.00;-1.00;18438;297;7504644;-35
2023/05/22 07:34:07;;;;;;;2.40;1.30;;;;;;;-128.00;-1.00;-1.00;18471;285;7506048;-35
2023/05/22 07:36:33;;;;;;;9.20;1.40;;;;;;;-128.00;-1.00;-1.00;18492;320;7504408;-36
2023/05/22 07:38:59;;;;;;;1.40;1.10;;;;;;;-128.00;-1.00;-1.00;18458;296;7504571;-31
2023/05/22 07:41:26;;;;;;;8.50;1.60;;;;;;;-128.00;-1.00;-1.00;18480;344;7506115;-35
2023/05/22 07:43:51;;;;;;;2.30;1.30;;;;;;;-128.00;-1.00;-1.00;18468;348;7504876;-33
2023/05/22 07:46:17;;;;;;;1.60;1.00;;;;;;;-128.00;-1.00;-1.00;18471;296;7504756;-33
2023/05/22 07:48:43;;;;;;;6.50;1.50;;;;;;;-128.00;-1.00;-1.00;18468;289;7504881;-31
2023/05/22 07:51:10;;;;;;;1.70;1.20;;;;;;;-128.00;-1.00;-1.00;18381;296;7505567;-33
2023/05/22 07:53:36;;;;;;;3.10;1.70;;;;;;;-128.00;-1.00;-1.00;18890;296;7504935;-32
2023/05/22 07:56:02;;;;;;;2.50;1.60;;;;;;;-128.00;-1.00;-1.00;18865;289;7505074;-35
2023/05/22 07:58:28;;;;;;;2.40;1.50;;;;;;;-128.00;-1.00;-1.00;18875;296;7504847;-32
2023/05/22 08:00:54;;;;;;;5.60;2.10;;;;;;;-128.00;-1.00;-1.00;18853;317;7504434;-34
2023/05/22 08:03:21;;;;;;;2.40;1.50;;;;;;;-128.00;-1.00;-1.00;18885;296;7505198;-35
2023/05/22 08:05:47;;;;;;;27.70;1.40;;;;;;;-128.00;-1.00;-1.00;18893;296;7504288;-32
2023/05/22 08:08:13;;;;;;;1.50;1.30;;;;;;;-128.00;-1.00;-1.00;18854;298;7505042;-35
2023/05/22 08:10:39;;;;;;;3.60;1.30;;;;;;;-128.00;-1.00;-1.00;18862;285;7504808;-35
2023/05/22 08:13:05;;;;;;;7.40;1.10;;;;;;;-128.00;-1.00;-1.00;18875;285;7504356;-36
2023/05/22 08:15:33;;;;;;;2.20;1.00;;;;;;;-128.00;-1.00;-1.00;18883;285;7505564;-32
2023/05/22 08:17:59;;;;;;;2.60;1.30;;;;;;;-128.00;-1.00;-1.00;18478;285;7504974;-31
2023/05/22 08:20:25;;;;;;;2.50;1.60;;;;;;;-128.00;-1.00;-1.00;18462;296;7504319;-35
2023/05/22 08:22:51;;;;;;;9.30;1.30;;;;;;;-128.00;-1.00;-1.00;18496;332;7506065;-36
2023/05/22 08:25:17;;;;;;;2.20;0.90;;;;;;;-128.00;-1.00;-1.00;18468;289;7507271;-36
2023/05/22 08:27:42;;;;;;;1.70;1.20;;;;;;;-128.00;-1.00;-1.00;18485;344;7504981;-37
2023/05/22 08:30:09;;;;;;;3.10;1.30;;;;;;;-128.00;-1.00;-1.00;18875;319;7505377;-31
2023/05/22 08:32:35;;;;;;;2.80;1.60;;;;;;;-128.00;-1.00;-1.00;18907;296;7507168;-32
2023/05/22 08:35:01;;;;;;;3.80;1.40;;;;;;;-128.00;-1.00;-1.00;18865;298;7506220;-32
2023/05/22 08:37:27;;;;;;;5.40;2.00;;;;;;;-128.00;-1.00;-1.00;18877;298;7506242;-35
2023/05/22 08:39:54;;;;;;;3.30;1.70;;;;;;;-128.00;-1.00;-1.00;18871;296;7505258;-35
2023/05/22 08:42:20;;;;;;;1.50;1.10;;;;;;;-128.00;-1.00;-1.00;18866;285;7506024;-35
2023/05/22 08:44:47;;;;;;;2.20;1.40;;;;;;;-128.00;-1.00;-1.00;18872;296;7504921;-32
2023/05/22 08:47:13;;;;;;;1.10;0.80;;;;;;;-128.00;-1.00;-1.00;18483;296;7504470;-35
2023/05/22 08:49:39;;;;;;;2.80;1.40;;;;;;;-128.00;-1.00;-1.00;18459;316;7504762;-35
2023/05/22 08:52:17;;;;;;;4.00;1.80;;;;;;;-128.00;-1.00;-1.00;18490;289;7504637;-31
2023/05/22 08:54:44;;;;;;;8.30;1.60;;;;;;;-128.00;-1.00;-1.00;18428;296;7504696;-35
2023/05/22 08:57:09;;;;;;;3.30;1.80;;;;;;;-128.00;-1.00;-1.00;18460;296;7506086;-35
2023/05/22 09:02:37;;;;;;;10.00;0.90;;;;;;;-128.00;-1.00;-1.00;18465;289;7505988;-36
2023/05/22 09:05:05;;;;;;;3.80;2.00;;;;;;;-128.00;-1.00;-1.00;18425;342;7504377;-36
2023/05/22 09:07:30;;;;;;;2.50;1.00;;;;;;;-128.00;-1.00;-1.00;18481;285;7505073;-36
2023/05/22 09:09:56;;;;;;;2.20;1.40;;;;;;;-128.00;-1.00;-1.00;18439;289;7504453;-36
2023/05/22 09:12:22;;;;;;;2.00;0.90;;;;;;;-128.00;-1.00;-1.00;18454;308;7504495;-37
2023/05/22 09:14:49;;;;;;;7.90;2.20;;;;;;;-128.00;-1.00;-1.00;18505;285;7505949;-32
2023/05/22 09:17:15;;;;;;;4.30;1.50;;;;;;;-128.00;-1.00;-1.00;18446;336;7504512;-34
2023/05/22 09:19:44;;;;;;;2.10;1.40;;;;;;;-128.00;-1.00;-1.00;18484;340;7506133;-35
2023/05/22 09:22:10;;;;;;;1.60;1.10;;;;;;;-128.00;-1.00;-1.00;18472;296;7504772;-31
2023/05/22 09:24:43;;;;;;;1.70;1.50;;;;;;;-128.00;-1.00;-1.00;18459;289;7506387;-32
2023/05/22 09:27:09;;;;;;;2.60;0.90;;;;;;;-128.00;-1.00;-1.00;18482;285;7504454;-36
2023/05/22 09:29:51;;;;;;;3.20;1.50;;;;;;;-128.00;-1.00;-1.00;18476;289;7505746;-35
2023/05/22 09:32:17;;;;;;;1.20;0.80;;;;;;;-128.00;-1.00;-1.00;18452;298;7504972;-32
2023/05/22 09:34:46;;;;;;;7.40;1.70;;;;;;;-128.00;-1.00;-1.00;18448;285;7504495;-36
2023/05/22 09:37:13;;;;;;;6.90;1.00;;;;;;;-128.00;-1.00;-1.00;18456;308;7505265;-36
2023/05/22 09:39:42;;;;;;;2.30;1.30;;;;;;;-128.00;-1.00;-1.00;18458;298;7504825;-35
2023/05/22 09:42:10;;;;;;;2.00;1.30;;;;;;;-128.00;-1.00;-1.00;18475;349;7504647;-32
2023/05/22 09:44:36;;;;;;;7.90;2.00;;;;;;;-128.00;-1.00;-1.00;18480;296;7505336;-35
2023/05/22 09:47:03;;;;;;;12.00;1.50;;;;;;;-128.00;-1.00;-1.00;18885;297;7505163;-35
2023/05/22 09:49:29;;;;;;;2.70;1.30;;;;;;;-128.00;-1.00;-1.00;18461;289;7505167;-31
2023/05/22 09:51:55;;;;;;;4.50;1.50;;;;;;;-128.00;-1.00;-1.00;18464;298;7506192;-31
2023/05/22 09:54:20;;;;;;;1.80;1.50;;;;;;;-128.00;-1.00;-1.00;18454;285;7506136;-32
2023/05/22 09:56:49;;;;;;;2.10;1.50;;;;;;;-128.00;-1.00;-1.00;18432;289;7505043;-31
2023/05/22 09:59:19;;;;;;;2.00;1.00;;;;;;;-128.00;-1.00;-1.00;18465;296;7504921;-36
2023/05/22 10:01:46;;;;;;;13.00;1.20;;;;;;;-128.00;-1.00;-1.00;18463;319;7506015;-32
2023/05/22 10:04:13;;;;;;;1.10;1.00;;;;;;;-128.00;-1.00;-1.00;18477;297;7506493;-32
2023/05/22 10:06:38;;;;;;;2.40;1.50;;;;;;;-128.00;-1.00;-1.00;18478;289;7504901;-36
2023/05/22 10:09:04;;;;;;;1.60;0.80;;;;;;;-128.00;-1.00;-1.00;18479;304;7504629;-32
2023/05/22 10:11:31;;;;;;;13.10;0.80;;;;;;;-128.00;-1.00;-1.00;18469;289;7504354;-36
2023/05/22 10:13:58;;;;;;;2.80;1.90;;;;;;;-128.00;-1.00;-1.00;18467;296;7505845;-36
2023/05/22 10:16:24;;;;;;;3.80;1.70;;;;;;;-128.00;-1.00;-1.00;18489;289;7504714;-36
2023/05/22 10:18:50;;;;;;;5.00;1.40;;;;;;;-128.00;-1.00;-1.00;18490;308;7506029;-32
2023/05/22 10:21:16;;;;;;;0.70;0.70;;;;;;;-128.00;-1.00;-1.00;18453;296;7504305;-36
2023/05/22 10:23:41;;;;;;;2.50;1.00;;;;;;;-128.00;-1.00;-1.00;18468;308;7505767;-32
2023/05/22 10:26:07;;;;;;;1.70;1.30;;;;;;;-128.00;-1.00;-1.00;18449;287;7506081;-32
2023/05/22 10:28:40;;;;;;;4.00;1.40;;;;;;;-128.00;-1.00;-1.00;18479;296;7504666;-36
2023/05/22 10:31:24;;;;;;;1.60;1.30;;;;;;;-128.00;-1.00;-1.00;18475;296;7504628;-35
2023/05/22 10:33:53;;;;;;;2.10;1.30;;;;;;;-128.00;-1.00;-1.00;18459;289;7505967;-36
2023/05/22 10:36:25;;;;;;;1.60;1.00;;;;;;;-128.00;-1.00;-1.00;18452;308;7505036;-32
2023/05/22 10:39:14;;;;;;;2.70;1.60;;;;;;;-128.00;-1.00;-1.00;18472;289;7506016;-32
2023/05/22 10:41:40;;;;;;;5.20;1.30;;;;;;;-128.00;-1.00;-1.00;18471;289;7504595;-33
2023/05/22 10:44:06;;;;;;;2.90;1.20;;;;;;;-128.00;-1.00;-1.00;18458;350;7506070;-32
2023/05/22 10:46:33;;;;;;;2.40;1.40;;;;;;;-128.00;-1.00;-1.00;18857;296;7504696;-31
2023/05/22 10:48:59;;;;;;;2.00;1.00;;;;;;;-128.00;-1.00;-1.00;18473;289;7504566;-36
2023/05/22 10:51:24;;;;;;;3.20;1.20;;;;;;;-128.00;-1.00;-1.00;18459;298;7504700;-36
2023/05/22 10:53:54;;;;;;;2.10;1.50;;;;;;;-128.00;-1.00;-1.00;18467;289;7504710;-32
2023/05/22 10:56:21;;;;;;;1.20;1.10;;;;;;;-128.00;-1.00;-1.00;18475;289;7504784;-35
2023/05/22 10:59:01;;;;;;;5.60;2.20;;;;;;;-128.00;-1.00;-1.00;18468;298;7506012;-30
2023/05/22 11:01:27;;;;;;;1.30;0.90;;;;;;;-128.00;-1.00;-1.00;18456;289;7504871;-36
2023/05/22 11:44:56;;;;;;;2.30;1.40;;;;;;;-97.58;5.22;19886.32;98387;295;1543996;-30
2023/05/22 11:47:24;;;;;;;2.20;1.20;;;;;;;-128.00;-1.00;-1.00;97483;297;1004044;-35
2023/05/22 11:49:49;;;;;;;5.50;2.00;;;;;;;-128.00;-1.00;-1.00;97811;295;1003520;-31
2023/05/22 11:52:15;;;;;;;2.30;1.60;;;;;;;-128.00;-1.00;-1.00;97793;295;1004298;-31
2023/05/22 11:54:47;;;;;;;1.50;1.10;;;;;;;-128.00;-1.00;-1.00;97897;295;1003282;-35
2023/05/22 11:57:13;;;;;;;1.60;1.20;;;;;;;-128.00;-1.00;-1.00;97819;295;1003133;-31
2023/05/22 11:59:39;;;;;;;1.80;1.30;;;;;;;-128.00;-1.00;-1.00;97866;295;1003220;-35
2023/05/22 12:02:07;;;;;;;2.00;1.20;;;;;;;-128.00;-1.00;-1.00;97894;295;1003337;-31
2023/05/22 12:04:33;;;;;;;4.90;1.30;;;;;;;-128.00;-1.00;-1.00;97963;295;1003267;-35
2023/05/22 12:06:58;;;;;;;2.10;1.30;;;;;;;-128.00;-1.00;-1.00;97802;295;1003194;-35
2023/05/22 12:09:27;;;;;;;2.30;0.80;;;;;;;-128.00;-1.00;-1.00;97825;295;1004950;-33
2023/05/22 12:11:54;;;;;;;2.80;1.60;;;;;;;-128.00;-1.00;-1.00;97887;295;1003017;-30
2023/05/22 12:14:24;;;;;;;2.20;1.30;;;;;;;-128.00;-1.00;-1.00;98017;295;1003241;-31
2023/05/22 12:16:51;;;;;;;2.20;1.10;;;;;;;-128.00;-1.00;-1.00;97854;295;1002843;-30